Time;durP1;ratioP1;P1;durP2;ratioP2;P2;SDS_P1;SDS_P2;PMS_P1;PMS_P2;Temp;Humidity;BMP_temperature;BMP_pressure;BME280_temperature;BME280_humidity;BME280_pressure;Samples;Min_cycle;Max_cycle;Signal;HPM_P1;HPM_P2
2023/01/09 00:00:54;;;;;;;3.03;1.27;;;;;;;10.39;68.62;98146.94;5047928;28;20057;-61
2023/01/09 00:03:22;;;;;;;2.28;1.08;;;;;;;10.30;67.82;98149.97;5051783;28;20056;-61
2023/01/09 00:05:49;;;;;;;1.50;0.90;;;;;;;10.29;67.83;98158.66;5050027;28;20494;-61
2023/01/09 00:08:17;;;;;;;1.30;0.80;;;;;;;10.11;69.17;98144.41;5052359;28;20060;-61
2023/01/09 00:10:45;;;;;;;1.67;0.85;;;;;;;10.07;70.11;98155.47;5051604;28;20490;-61
2023/01/09 00:13:17;;;;;;;2.58;1.00;;;;;;;10.01;70.73;98153.34;5052549;28;20059;-64
2023/01/09 00:15:45;;;;;;;4.57;0.88;;;;;;;9.75;72.17;98150.06;5049195;28;20078;-61
2023/01/09 00:18:12;;;;;;;2.25;1.08;;;;;;;9.72;71.82;98156.38;5051764;28;20056;-61
2023/01/09 00:20:40;;;;;;;2.95;1.05;;;;;;;9.61;72.76;98147.00;5050990;28;20056;-59
2023/01/09 00:23:08;;;;;;;3.70;1.10;;;;;;;9.31;74.65;98150.34;5051491;28;20052;-62
2023/01/09 00:25:35;;;;;;;2.88;1.05;;;;;;;9.22;76.43;98152.53;5044564;28;20075;-61
2023/01/09 00:28:03;;;;;;;3.45;1.08;;;;;;;9.09;77.89;98164.91;5051446;28;20059;-61
2023/01/09 00:30:32;;;;;;;2.13;1.13;;;;;;;9.20;78.32;98142.91;5042449;28;20048;-62
2023/01/09 00:32:59;;;;;;;1.45;0.80;;;;;;;9.19;76.53;98149.66;5056986;28;20053;-62
2023/01/09 00:35:29;;;;;;;1.40;0.80;;;;;;;9.24;76.23;98152.16;5049740;28;20056;-61
2023/01/09 00:37:56;;;;;;;3.15;0.80;;;;;;;9.22;74.93;98152.53;5053016;28;20079;-62
2023/01/09 00:40:23;;;;;;;1.40;0.60;;;;;;;9.05;76.16;98153.72;5055979;28;20405;-62
2023/01/09 00:42:54;;;;;;;3.75;0.95;;;;;;;9.06;76.86;98166.44;5055183;28;20049;-61
2023/01/09 00:45:27;;;;;;;3.88;0.88;;;;;;;8.80;77.71;98157.88;5054316;28;20057;-62
2023/01/09 00:48:02;;;;;;;2.35;0.77;;;;;;;8.65;80.77;98165.03;5072562;28;20497;-62
2023/01/09 00:50:31;;;;;;;1.23;0.68;;;;;;;8.60;80.94;98157.00;5057579;28;20052;-60
2023/01/09 00:53:03;;;;;;;1.67;0.70;;;;;;;8.39;80.93;98166.34;5056002;28;20045;-61
2023/01/09 00:55:35;;;;;;;2.75;0.90;;;;;;;8.70;80.02;98160.03;5054003;28;20056;-60
2023/01/09 00:58:02;;;;;;;1.45;0.63;;;;;;;8.70;79.06;98164.78;5054272;28;20056;-61
2023/01/09 01:00:30;;;;;;;2.47;0.80;;;;;;;8.60;79.56;98168.88;5053629;28;20049;-61
2023/01/09 01:03:01;;;;;;;1.92;0.82;;;;;;;8.43;80.17;98161.72;5056054;28;20048;-60
2023/01/09 01:08:19;;;;;;;;;;;;;;;8.40;80.47;98162.44;5038835;28;20405;-61
2023/01/09 01:10:56;;;;;;;2.28;0.82;;;;;;;8.62;79.97;98163.00;5055764;28;19922;-60
2023/01/09 01:13:24;;;;;;;1.42;0.63;;;;;;;8.60;78.81;98166.13;5056575;28;20057;-60
2023/01/09 01:15:51;;;;;;;1.00;0.57;;;;;;;8.54;79.37;98167.53;5054370;28;20056;-61
2023/01/09 01:18:23;;;;;;;1.05;0.70;;;;;;;8.52;78.50;98165.16;5055656;28;20061;-60
2023/01/09 01:20:51;;;;;;;1.27;0.70;;;;;;;8.57;79.32;98171.56;5055209;28;20052;-60
2023/01/09 01:23:27;;;;;;;1.10;0.50;;;;;;;8.54;79.91;98171.13;5054169;28;20053;-61
2023/01/09 01:25:58;;;;;;;1.13;0.55;;;;;;;8.65;78.88;98162.25;5053860;28;20060;-61
2023/01/09 01:28:25;;;;;;;1.55;0.60;;;;;;;8.61;79.26;98180.78;5060527;28;20429;-61
2023/01/09 01:30:53;;;;;;;1.63;0.55;;;;;;;8.62;78.46;98174.09;5075341;28;20064;-61
2023/01/09 01:33:20;;;;;;;2.17;0.68;;;;;;;8.55;79.09;98177.50;5075045;28;20064;-61
2023/01/09 01:35:59;;;;;;;0.93;0.70;;;;;;;8.63;80.41;98170.97;5075221;28;20053;-60
2023/01/09 01:38:26;;;;;;;1.67;0.70;;;;;;;8.68;78.69;98181.00;5075419;28;20048;-61
2023/01/09 01:40:54;;;;;;;4.45;0.93;;;;;;;8.62;79.60;98176.88;5074804;28;20063;-62
2023/01/09 01:43:23;;;;;;;1.48;0.63;;;;;;;8.47;79.97;98172.94;5070555;28;20055;-63
2023/01/09 01:45:51;;;;;;;1.23;0.57;;;;;;;8.52;81.34;98176.25;5075062;28;20059;-60
2023/01/09 01:48:28;;;;;;;0.85;0.47;;;;;;;8.59;79.53;98180.34;5073828;28;20064;-61
2023/01/09 01:51:02;;;;;;;1.08;0.73;;;;;;;8.50;80.63;98173.03;5056356;28;20060;-61
2023/01/09 01:53:46;;;;;;;0.70;0.40;;;;;;;8.63;78.65;98182.06;5075241;28;20048;-61
2023/01/09 01:56:20;;;;;;;1.20;0.60;;;;;;;8.72;79.20;98179.91;5071610;28;20064;-60
2023/01/09 01:58:51;;;;;;;1.02;0.70;;;;;;;8.71;78.68;98177.47;5071594;28;20392;-62
2023/01/09 02:01:19;;;;;;;1.70;0.50;;;;;;;8.71;78.67;98194.97;5064402;28;20079;-61
2023/01/09 02:03:53;;;;;;;1.08;0.47;;;;;;;8.80;76.12;98182.84;5054685;28;20056;-64
2023/01/09 02:06:22;;;;;;;0.80;0.50;;;;;;;8.78;75.63;98190.72;5054562;28;20060;-61
2023/01/09 02:08:53;;;;;;;0.47;0.30;;;;;;;8.62;74.86;98188.75;5054788;28;20053;-61
2023/01/09 02:11:21;;;;;;;0.90;0.50;;;;;;;8.68;74.86;98197.63;5047769;28;20045;-62
2023/01/09 02:13:52;;;;;;;0.68;0.40;;;;;;;8.77;74.93;98203.00;5074266;28;20052;-62
2023/01/09 02:16:36;;;;;;;1.38;0.52;;;;;;;8.81;75.74;98199.16;5074142;28;20060;-61
2023/01/09 02:19:19;;;;;;;0.80;0.40;;;;;;;8.78;74.09;98199.06;5054368;28;20057;-61
2023/01/09 02:21:58;;;;;;;0.98;0.60;;;;;;;8.85;72.82;98202.81;5053145;28;20056;-61
2023/01/09 02:25:03;;;;;;;1.63;0.57;;;;;;;8.91;74.03;98195.03;5054966;28;20052;-61
2023/01/09 02:28:11;;;;;;;1.50;0.60;;;;;;;8.80;72.95;98214.22;5059148;28;20052;-62
2023/01/09 02:30:49;;;;;;;0.95;0.52;;;;;;;8.92;72.49;98197.47;5034227;28;20056;-61
2023/01/09 02:33:47;;;;;;;0.95;0.50;;;;;;;8.93;72.20;98204.59;5074386;28;20048;-63
2023/01/09 02:36:26;;;;;;;1.13;0.60;;;;;;;8.96;71.91;98207.84;5070893;28;20053;-61
2023/01/09 02:39:06;;;;;;;1.00;0.60;;;;;;;8.97;71.12;98215.81;5074150;28;20079;-62
2023/01/09 02:41:44;;;;;;;1.20;0.50;;;;;;;9.05;71.22;98219.53;5070411;28;20053;-61
2023/01/09 02:44:23;;;;;;;0.93;0.52;;;;;;;9.11;70.55;98218.13;5073079;28;20060;-61
2023/01/09 02:47:02;;;;;;;1.15;0.60;;;;;;;9.06;70.42;98221.19;5073183;28;20067;-60
2023/01/09 02:49:32;;;;;;;2.22;0.68;;;;;;;9.15;71.26;98207.91;5072151;28;20048;-61
2023/01/09 02:52:13;;;;;;;2.08;0.68;;;;;;;9.22;71.42;98208.09;5073777;28;20048;-61
2023/01/09 02:54:51;;;;;;;1.92;0.70;;;;;;;9.21;71.43;98200.09;5073899;28;20057;-61
2023/01/09 02:57:41;;;;;;;3.08;0.70;;;;;;;9.27;71.01;98210.56;5067505;28;20048;-61
2023/01/09 03:00:19;;;;;;;1.70;0.90;;;;;;;9.32;71.51;98213.09;5072260;28;20131;-61
2023/01/09 03:02:51;;;;;;;2.75;1.15;;;;;;;9.27;71.84;98209.78;5053551;28;20045;-61
2023/01/09 03:05:24;;;;;;;2.45;1.00;;;;;;;9.17;69.99;98205.56;5053881;28;20061;-61
2023/01/09 03:07:59;;;;;;;3.35;1.08;;;;;;;9.25;70.52;98224.00;5069815;28;20060;-61
2023/01/09 03:10:32;;;;;;;3.50;0.95;;;;;;;9.20;71.10;98215.97;5073861;28;20155;-61
2023/01/09 03:13:01;;;;;;;2.58;1.08;;;;;;;9.24;71.53;98211.31;5066793;28;20511;-61
2023/01/09 03:15:39;;;;;;;3.42;1.00;;;;;;;9.37;72.26;98222.31;5071808;28;20059;-61
2023/01/09 03:18:10;;;;;;;1.90;1.10;;;;;;;9.25;71.78;98201.78;5073445;28;20059;-61
2023/01/09 03:20:43;;;;;;;4.05;1.30;;;;;;;9.14;71.07;98209.88;5055695;28;20096;-61
2023/01/09 03:23:17;;;;;;;2.40;1.08;;;;;;;9.01;70.92;98210.31;5053056;28;20055;-61
2023/01/09 03:25:47;;;;;;;2.70;1.38;;;;;;;8.96;70.92;98210.59;5051971;28;20056;-61
2023/01/09 03:28:32;;;;;;;2.50;1.33;;;;;;;8.78;72.05;98210.16;5033259;28;20049;-60
2023/01/09 03:31:15;;;;;;;2.30;1.15;;;;;;;8.65;71.87;98220.53;5033191;28;20078;-61
2023/01/09 03:33:44;;;;;;;3.38;1.30;;;;;;;8.74;72.86;98226.75;5033498;28;20056;-61
2023/01/09 03:36:15;;;;;;;2.58;1.50;;;;;;;8.72;72.24;98220.75;5032739;28;20053;-61
2023/01/09 03:38:45;;;;;;;3.05;1.50;;;;;;;8.78;73.66;98238.75;5050497;28;20060;-61
2023/01/09 03:41:16;;;;;;;2.65;1.30;;;;;;;8.79;73.18;98245.88;5055243;28;20489;-62
2023/01/09 03:43:49;;;;;;;2.22;1.70;;;;;;;8.88;72.48;98267.91;5072086;28;20044;-61
2023/01/09 03:46:17;;;;;;;3.67;1.55;;;;;;;8.90;72.43;98263.66;5073004;28;20052;-63
2023/01/09 03:48:45;;;;;;;2.03;1.40;;;;;;;8.94;72.76;98264.53;5073040;28;20052;-60
2023/01/09 03:51:13;;;;;;;3.47;1.57;;;;;;;8.93;72.79;98264.88;5073091;28;20053;-62
2023/01/09 03:53:41;;;;;;;3.00;1.95;;;;;;;9.00;71.79;98272.59;5072958;28;20055;-61
2023/01/09 03:56:09;;;;;;;5.50;1.98;;;;;;;9.01;71.93;98274.19;5067460;28;20056;-62
2023/01/09 03:58:37;;;;;;;3.38;1.83;;;;;;;9.09;72.57;98282.38;5073155;28;20059;-61
2023/01/09 04:01:08;;;;;;;3.42;1.60;;;;;;;9.09;70.98;98281.53;5063890;28;20060;-61
2023/01/09 04:03:37;;;;;;;4.30;1.77;;;;;;;9.09;71.77;98281.53;5052751;28;20068;-61
2023/01/09 04:06:08;;;;;;;3.60;2.40;;;;;;;9.05;70.83;98280.63;5052366;28;20053;-60
2023/01/09 04:08:36;;;;;;;2.90;2.00;;;;;;;9.13;72.13;98288.00;5052520;28;20051;-60
2023/01/09 04:11:03;;;;;;;2.63;1.63;;;;;;;9.13;71.04;98288.00;5059216;28;20056;-61
2023/01/09 04:13:31;;;;;;;3.15;1.80;;;;;;;9.14;70.99;98293.19;5070207;28;20382;-60
2023/01/09 04:16:01;;;;;;;3.65;1.90;;;;;;;9.22;70.21;98290.59;5048440;28;20056;-60
2023/01/09 04:18:28;;;;;;;2.55;1.90;;;;;;;9.16;70.82;98297.59;5051896;28;20052;-61
2023/01/09 04:20:56;;;;;;;4.10;2.08;;;;;;;9.16;69.77;98303.16;5051950;28;20485;-61
2023/01/09 04:23:28;;;;;;;3.13;1.83;;;;;;;9.23;69.60;98295.78;5052491;28;20102;-60
2023/01/09 04:25:56;;;;;;;3.75;2.10;;;;;;;9.24;70.32;98304.91;5065894;28;20087;-60
2023/01/09 04:28:23;;;;;;;4.57;2.20;;;;;;;9.21;70.50;98300.09;5069081;28;20488;-61
2023/01/09 04:30:51;;;;;;;3.72;2.38;;;;;;;9.12;70.75;98303.06;5052029;28;20049;-61
2023/01/09 04:33:18;;;;;;;4.57;2.70;;;;;;;9.16;69.75;98292.84;5051783;28;20049;-60
2023/01/09 04:35:46;;;;;;;4.35;2.10;;;;;;;9.13;69.61;98305.47;5052019;28;20053;-61
2023/01/09 04:38:13;;;;;;;4.45;2.17;;;;;;;8.96;69.11;98300.25;5051831;28;20056;-61
2023/01/09 04:40:53;;;;;;;4.50;2.10;;;;;;;8.95;68.97;98309.75;5066646;28;20063;-60
2023/01/09 04:43:21;;;;;;;4.57;2.03;;;;;;;9.05;69.67;98322.28;5072270;28;20044;-62
2023/01/09 04:45:48;;;;;;;5.68;2.17;;;;;;;8.99;68.84;98320.94;5071765;28;20057;-61
2023/01/09 04:48:16;;;;;;;3.42;2.45;;;;;;;8.90;69.88;98321.94;5072033;28;20064;-60
2023/01/09 04:50:43;;;;;;;6.82;2.40;;;;;;;8.80;68.50;98307.75;5072297;28;20057;-61
2023/01/09 04:53:12;;;;;;;6.68;2.42;;;;;;;8.79;69.82;98312.50;5067291;28;20059;-61
2023/01/09 04:55:42;;;;;;;5.90;2.08;;;;;;;8.63;68.61;98320.00;5071718;28;20052;-61
2023/01/09 04:58:11;;;;;;;4.05;2.15;;;;;;;8.50;68.57;98322.00;5071898;28;20052;-61
2023/01/09 05:00:38;;;;;;;3.63;1.80;;;;;;;8.43;69.24;98317.09;5066657;28;20068;-61
2023/01/09 05:03:06;;;;;;;5.03;2.03;;;;;;;8.41;68.66;98313.06;5061436;28;20059;-61
2023/01/09 05:05:33;;;;;;;5.30;1.77;;;;;;;8.23;69.55;98326.38;5071881;28;20053;-61
2023/01/09 05:08:08;;;;;;;4.75;1.70;;;;;;;8.23;68.70;98323.59;5069535;28;20500;-60
2023/01/09 05:10:36;;;;;;;4.97;1.77;;;;;;;8.17;69.52;98325.81;5069010;28;20053;-61
2023/01/09 05:13:03;;;;;;;5.30;2.00;;;;;;;8.22;68.87;98327.53;5071937;28;20079;-61
2023/01/09 05:15:32;;;;;;;2.58;1.60;;;;;;;8.10;69.46;98337.47;5072102;28;20063;-61
2023/01/09 05:17:59;;;;;;;3.70;1.80;;;;;;;8.13;69.69;98345.13;5071727;28;20049;-61
2023/01/09 05:20:27;;;;;;;4.97;1.80;;;;;;;8.06;70.43;98350.47;5071836;28;20064;-61
2023/01/09 05:22:54;;;;;;;2.75;1.60;;;;;;;8.04;69.02;98346.41;5068552;28;20496;-61
2023/01/09 05:25:22;;;;;;;6.88;2.42;;;;;;;7.97;69.94;98354.50;5075276;28;20048;-61
2023/01/09 05:27:49;;;;;;;4.65;2.05;;;;;;;7.91;69.97;98359.47;5075697;28;20048;-61
2023/01/09 05:30:18;;;;;;;6.00;2.10;;;;;;;7.86;71.00;98359.72;5075006;28;20057;-61
2023/01/09 05:32:58;;;;;;;4.68;1.92;;;;;;;7.87;69.42;98356.63;5056726;28;20510;-60
2023/01/09 05:35:25;;;;;;;4.72;2.00;;;;;;;7.79;69.68;98362.25;5053723;28;20049;-61
2023/01/09 05:37:52;;;;;;;5.07;2.05;;;;;;;7.72;69.62;98360.06;5053387;28;20402;-59
2023/01/09 05:40:20;;;;;;;4.68;2.17;;;;;;;7.69;70.70;98363.56;5064208;28;20056;-62
2023/01/09 05:42:47;;;;;;;7.43;2.00;;;;;;;7.67;70.15;98357.56;5055534;28;20063;-61
2023/01/09 05:45:15;;;;;;;4.63;1.90;;;;;;;7.66;69.79;98356.72;5054874;28;20048;-61
2023/01/09 05:47:44;;;;;;;3.65;1.90;;;;;;;7.77;69.69;98354.31;5069698;28;20052;-61
2023/01/09 05:50:14;;;;;;;6.57;2.33;;;;;;;7.82;69.12;98358.81;5072116;28;20116;-61
2023/01/09 05:52:41;;;;;;;5.18;1.40;;;;;;;7.81;69.09;98363.56;5050527;28;20060;-60
2023/01/09 05:55:09;;;;;;;4.55;1.70;;;;;;;7.90;69.54;98366.19;5050758;28;20051;-61
2023/01/09 05:57:36;;;;;;;4.53;1.20;;;;;;;7.79;68.71;98353.94;5054145;28;20409;-61
2023/01/09 06:00:05;;;;;;;4.70;1.23;;;;;;;7.98;69.18;98368.03;5052401;28;20395;-60
2023/01/09 06:02:32;;;;;;;4.28;1.50;;;;;;;8.10;68.79;98354.13;5051750;28;20051;-60
2023/01/09 06:05:00;;;;;;;4.70;1.23;;;;;;;8.25;68.39;98362.88;5048023;28;20053;-61
2023/01/09 06:07:29;;;;;;;5.25;1.80;;;;;;;8.22;69.28;98363.59;5049168;28;20053;-61
2023/01/09 06:09:56;;;;;;;3.78;1.00;;;;;;;8.37;68.85;98367.59;5058381;28;20049;-61
2023/01/09 06:12:23;;;;;;;4.40;1.10;;;;;;;8.45;68.46;98372.22;5054819;28;20485;-61
2023/01/09 06:14:51;;;;;;;2.75;0.82;;;;;;;8.49;67.67;98368.38;5047675;28;20206;-62
2023/01/09 06:17:18;;;;;;;3.25;1.10;;;;;;;8.58;67.57;98370.22;5050537;28;20083;-62
2023/01/09 06:19:46;;;;;;;5.50;1.17;;;;;;;8.51;66.78;98377.16;5048695;28;20057;-63
2023/01/09 06:22:13;;;;;;;4.70;1.30;;;;;;;8.54;65.97;98373.66;5048504;28;20056;-62
2023/01/09 06:24:42;;;;;;;2.42;0.90;;;;;;;8.52;66.07;98376.03;5052286;28;20049;-62
2023/01/09 06:27:11;;;;;;;2.28;1.05;;;;;;;8.49;65.93;98364.81;5052377;28;20064;-62
2023/01/09 06:29:39;;;;;;;5.32;1.50;;;;;;;8.42;66.96;98370.97;5054717;28;20053;-62
2023/01/09 06:32:06;;;;;;;4.57;1.20;;;;;;;8.37;66.38;98381.47;5055895;28;20055;-62
2023/01/09 06:34:34;;;;;;;5.50;1.40;;;;;;;8.25;67.17;98416.41;5061495;28;20049;-62
2023/01/09 06:37:01;;;;;;;3.38;1.30;;;;;;;8.23;68.07;98382.66;5052857;28;20057;-62
2023/01/09 06:39:29;;;;;;;6.00;1.52;;;;;;;8.13;67.10;98383.13;5057930;28;20045;-61
2023/01/09 06:41:57;;;;;;;2.85;1.00;;;;;;;8.14;68.94;98382.78;5064167;28;20052;-62
2023/01/09 06:44:25;;;;;;;2.65;1.42;;;;;;;8.24;67.48;98391.78;5054260;28;20072;-62
2023/01/09 06:46:52;;;;;;;4.47;1.10;;;;;;;8.18;67.72;98382.09;5060114;28;20052;-62
2023/01/09 06:49:22;;;;;;;2.70;1.10;;;;;;;8.18;69.13;98387.63;5062367;28;20064;-62
2023/01/09 06:51:50;;;;;;;1.58;0.85;;;;;;;8.16;67.64;98384.41;5053762;28;20064;-62
2023/01/09 06:54:17;;;;;;;2.83;1.05;;;;;;;8.16;68.07;98387.97;5054360;28;20055;-62
2023/01/09 06:56:44;;;;;;;5.18;1.10;;;;;;;8.33;67.79;98389.66;5073736;28;20382;-62
2023/01/09 06:59:13;;;;;;;4.25;1.13;;;;;;;8.28;68.23;98393.50;5073574;28;20052;-62
2023/01/09 07:01:40;;;;;;;2.33;0.80;;;;;;;8.28;68.16;98384.38;5069686;28;20713;-61
2023/01/09 07:04:09;;;;;;;3.38;1.05;;;;;;;8.29;68.11;98388.75;5049132;28;20509;-63
2023/01/09 07:06:37;;;;;;;4.18;1.10;;;;;;;8.20;67.19;98382.53;5048156;28;20045;-62
2023/01/09 07:09:05;;;;;;;4.65;1.23;;;;;;;8.30;68.46;98395.94;5044330;28;20056;-62
2023/01/09 07:11:32;;;;;;;4.55;1.10;;;;;;;8.19;68.75;98400.31;5050240;28;20520;-61
2023/01/09 07:13:59;;;;;;;4.00;0.95;;;;;;;8.08;69.92;98405.53;5048768;28;20053;-62
2023/01/09 07:16:37;;;;;;;4.30;0.98;;;;;;;7.93;70.99;98407.06;5048228;28;20044;-61
2023/01/09 07:19:04;;;;;;;4.45;1.00;;;;;;;7.99;69.69;98402.91;5045261;28;20421;-61
2023/01/09 07:21:32;;;;;;;2.88;1.17;;;;;;;7.99;70.44;98397.34;5050116;28;20060;-60
2023/01/09 07:23:59;;;;;;;3.00;1.20;;;;;;;8.04;70.42;98401.84;5046976;28;20052;-60
2023/01/09 07:26:26;;;;;;;3.58;1.00;;;;;;;8.02;70.84;98395.84;5047466;28;20045;-59
2023/01/09 07:28:54;;;;;;;4.93;1.30;;;;;;;8.01;69.62;98399.78;5046695;28;20045;-60
2023/01/09 07:31:21;;;;;;;4.35;1.13;;;;;;;7.88;70.32;98407.31;5047089;28;20053;-62
2023/01/09 07:33:50;;;;;;;3.85;1.13;;;;;;;7.86;72.24;98393.00;5046415;28;20055;-60
2023/01/09 07:36:17;;;;;;;2.67;1.00;;;;;;;7.75;72.06;98394.59;5047248;28;20401;-61
2023/01/09 07:38:45;;;;;;;4.45;1.25;;;;;;;7.65;71.91;98393.91;5048445;28;20405;-61
2023/01/09 07:41:12;;;;;;;4.45;1.15;;;;;;;7.82;71.75;98401.19;5045988;28;20063;-61
2023/01/09 07:43:40;;;;;;;4.75;1.30;;;;;;;7.70;71.50;98404.75;5047989;28;20060;-61
2023/01/09 07:46:07;;;;;;;3.47;1.27;;;;;;;7.93;70.87;98401.53;5046935;28;20486;-65
2023/01/09 07:48:34;;;;;;;7.78;1.88;;;;;;;7.92;71.31;98399.91;5047951;28;20508;-62
2023/01/09 07:51:03;;;;;;;3.65;1.20;;;;;;;7.86;71.79;98402.09;5045837;28;20053;-61
2023/01/09 07:53:30;;;;;;;5.03;1.20;;;;;;;7.77;71.30;98403.38;5052998;28;20044;-61
2023/01/09 07:55:58;;;;;;;2.53;0.90;;;;;;;7.93;70.21;98409.84;5062407;28;20053;-61
2023/01/09 07:58:25;;;;;;;4.10;1.27;;;;;;;7.91;70.85;98401.84;5064135;28;20063;-61
2023/01/09 08:00:52;;;;;;;2.85;0.90;;;;;;;8.01;69.39;98400.59;5064224;28;20060;-61
2023/01/09 08:03:19;;;;;;;3.83;1.50;;;;;;;7.88;69.39;98401.75;5051160;28;20044;-60
2023/01/09 08:05:46;;;;;;;3.50;1.52;;;;;;;7.91;70.43;98412.94;5055332;28;20052;-62
2023/01/09 08:08:15;;;;;;;2.33;1.30;;;;;;;8.04;70.18;98404.63;5063627;28;20405;-61
2023/01/09 08:10:43;;;;;;;4.45;1.27;;;;;;;8.12;68.45;98418.34;5050918;28;20398;-61
2023/01/09 08:13:10;;;;;;;8.70;1.63;;;;;;;8.14;69.86;98418.81;5053098;28;20429;-61
2023/01/09 08:15:37;;;;;;;5.20;1.17;;;;;;;8.08;69.34;98414.69;5059371;28;20055;-61
2023/01/09 08:18:05;;;;;;;3.25;1.33;;;;;;;8.29;68.78;98419.25;5051084;28;20052;-60
2023/01/09 08:20:32;;;;;;;1.77;1.00;;;;;;;8.01;71.15;98411.69;5062330;28;20060;-61
2023/01/09 08:22:59;;;;;;;2.53;1.10;;;;;;;7.97;72.97;98435.72;5043114;28;20405;-60
2023/01/09 08:25:28;;;;;;;2.20;1.00;;;;;;;7.95;73.52;98424.16;5052543;28;20049;-60
2023/01/09 08:28:01;;;;;;;3.13;1.02;;;;;;;7.91;72.96;98426.81;5050345;28;20052;-60
2023/01/09 08:30:34;;;;;;;4.18;1.40;;;;;;;7.92;73.59;98428.44;5050734;28;20524;-60
2023/01/09 08:33:19;;;;;;;6.70;1.10;;;;;;;7.90;73.71;98427.97;5035396;28;20056;-60
2023/01/09 08:35:55;;;;;;;3.28;1.02;;;;;;;7.99;74.19;98421.50;5048412;28;20056;-60
2023/01/09 08:38:39;;;;;;;2.33;0.73;;;;;;;7.99;73.28;98419.53;5051612;28;20045;-61
2023/01/09 08:47:08;;;;;;;2.90;0.80;;;;;;;8.12;73.72;98423.91;5042954;28;20056;-60
2023/01/09 08:49:40;;;;;;;2.40;1.20;;;;;;;8.14;73.49;98426.34;5048098;28;20057;-60
2023/01/09 08:52:08;;;;;;;4.28;1.05;;;;;;;8.24;72.94;98441.69;5050247;28;20057;-59
2023/01/09 08:54:37;;;;;;;3.33;1.17;;;;;;;8.25;73.79;98434.97;5055897;28;20053;-62
2023/01/09 08:57:08;;;;;;;3.63;0.98;;;;;;;8.04;74.88;98438.72;5062947;28;20385;-60
2023/01/09 08:59:36;;;;;;;3.58;1.10;;;;;;;8.27;75.32;98436.28;5055567;28;20053;-60
2023/01/09 09:02:03;;;;;;;3.88;1.27;;;;;;;8.49;73.51;98446.06;5053402;28;20414;-61
2023/01/09 09:04:31;;;;;;;2.42;0.90;;;;;;;8.52;71.97;98433.47;5053079;28;20044;-60
2023/01/09 09:07:04;;;;;;;4.03;1.08;;;;;;;8.48;72.27;98452.78;5055401;28;20049;-60
2023/01/09 09:09:34;;;;;;;3.63;1.10;;;;;;;8.48;72.09;98433.38;5053589;28;20444;-60
2023/01/09 09:12:04;;;;;;;1.80;0.90;;;;;;;8.53;71.14;98437.84;5054784;28;20075;-60
2023/01/09 09:17:17;;;;;;;3.42;1.20;;;;;;;8.73;70.50;98424.94;5057766;28;19920;-59
2023/01/09 09:19:51;;;;;;;2.97;0.95;;;;;;;10.27;67.64;98422.56;5058903;28;20372;-59
2023/01/09 09:22:19;;;;;;;3.60;0.93;;;;;;;10.76;64.33;98419.25;5059934;28;20060;-59
2023/01/09 09:24:48;;;;;;;3.50;0.82;;;;;;;10.63;62.75;98426.97;5053263;28;20469;-59
2023/01/09 09:27:18;;;;;;;2.40;0.80;;;;;;;12.90;58.03;98409.25;5063963;28;20044;-60
2023/01/09 09:29:51;;;;;;;1.58;0.82;;;;;;;15.57;50.85;98410.69;5056963;28;20068;-60
2023/01/09 09:32:18;;;;;;;3.53;1.15;;;;;;;17.91;44.50;98410.84;5055240;28;20049;-60
2023/01/09 09:34:57;;;;;;;2.30;0.88;;;;;;;18.16;41.09;98417.03;5055158;28;20052;-60
2023/01/09 09:37:27;;;;;;;2.88;0.70;;;;;;;20.35;38.34;98407.75;5054125;28;20060;-60
2023/01/09 09:39:57;;;;;;;1.90;0.70;;;;;;;20.60;37.84;98408.13;5053131;28;20059;-61
2023/01/09 09:45:53;;;;;;;1.35;0.60;;;;;;;23.04;32.72;98404.44;5053904;28;20064;-61
2023/01/09 09:48:32;;;;;;;1.75;0.60;;;;;;;19.18;38.20;98423.25;5053220;28;20052;-61
2023/01/09 09:51:35;;;;;;;1.58;0.70;;;;;;;16.56;42.98;98423.13;5061754;28;20048;-61
2023/01/09 09:54:08;;;;;;;1.98;0.80;;;;;;;14.23;47.53;98427.31;5058531;28;20489;-60
2023/01/09 09:56:41;;;;;;;2.75;0.88;;;;;;;12.84;52.61;98442.28;5057268;28;20055;-61
2023/01/09 09:59:17;;;;;;;2.22;0.80;;;;;;;12.71;53.87;98435.34;5051522;28;20509;-61
2023/01/09 10:02:09;;;;;;;1.63;0.80;;;;;;;13.16;52.20;98453.06;5053119;28;20441;-61
2023/01/09 10:05:02;;;;;;;2.10;0.88;;;;;;;13.19;52.59;98458.69;5041425;28;20426;-60
2023/01/09 10:07:43;;;;;;;4.88;1.15;;;;;;;14.17;50.07;98447.28;5057694;28;20052;-60
2023/01/09 10:10:34;;;;;;;3.78;0.95;;;;;;;12.93;53.70;98453.97;5054983;28;20045;-62
2023/01/09 10:16:07;;;;;;;2.08;0.80;;;;;;;12.08;54.61;98479.50;5052635;28;20422;-61
2023/01/09 10:18:50;;;;;;;4.97;1.42;;;;;;;11.30;57.39;98462.94;5052524;28;20402;-61
2023/01/09 10:21:40;;;;;;;2.85;1.20;;;;;;;11.07;57.41;98482.38;5049344;28;20053;-61
2023/01/09 10:24:38;;;;;;;4.72;1.13;;;;;;;10.79;59.35;98465.88;5051371;28;20532;-61
2023/01/09 10:27:20;;;;;;;2.33;1.10;;;;;;;10.54;60.20;98482.84;5062324;28;20048;-62
2023/01/09 10:30:14;;;;;;;5.90;1.40;;;;;;;10.21;61.08;98490.78;5049389;28;20056;-63
2023/01/09 10:33:13;;;;;;;3.05;1.25;;;;;;;10.02;61.72;98486.75;5049434;28;20060;-63
2023/01/09 10:39:08;;;;;;;4.20;1.10;;;;;;;9.78;61.89;98495.25;5047532;28;20521;-63
2023/01/09 10:41:38;;;;;;;;;;;;;;;9.92;62.88;98495.63;5074528;28;20059;-64
2023/01/09 10:44:21;;;;;;;2.50;1.00;;;;;;;9.77;62.10;98516.69;5071526;28;19943;-64
2023/01/09 10:47:12;;;;;;;2.47;1.08;;;;;;;9.63;62.71;98497.66;5051207;28;20045;-63
2023/01/09 10:53:37;;;;;;;2.65;1.13;;;;;;;9.74;62.96;98493.22;5020196;28;20481;-64
2023/01/09 10:56:23;;;;;;;3.45;1.40;;;;;;;9.67;63.61;98506.91;5048263;28;20067;-60
2023/01/09 10:58:58;;;;;;;5.28;1.50;;;;;;;9.79;63.83;98524.69;5046751;28;20085;-62
2023/01/09 11:01:30;;;;;;;2.47;1.25;;;;;;;9.90;63.08;98506.31;5048464;28;20056;-64
2023/01/09 11:04:01;;;;;;;2.42;1.13;;;;;;;9.98;63.72;98505.31;5050772;28;20536;-60
2023/01/09 11:06:37;;;;;;;3.83;2.00;;;;;;;9.98;62.28;98499.75;5053623;28;20049;-64
2023/01/09 11:09:09;;;;;;;4.00;1.30;;;;;;;10.17;63.02;98504.59;5055771;28;20055;-69
2023/01/09 11:11:39;;;;;;;2.75;1.60;;;;;;;10.20;62.69;98506.66;5066815;28;20052;-68
2023/01/09 11:14:17;;;;;;;4.78;1.83;;;;;;;10.13;62.06;98512.84;5061519;28;20053;-64
2023/01/09 11:17:34;;;;;;;3.58;2.10;;;;;;;10.00;62.35;98500.22;5052536;28;20052;-63
2023/01/09 11:20:16;;;;;;;3.72;2.10;;;;;;;9.94;62.74;98515.53;5023474;28;20524;-63
2023/01/09 11:23:35;;;;;;;2.75;2.00;;;;;;;9.93;62.90;98500.84;5036377;28;20052;-63
2023/01/09 11:26:33;;;;;;;3.88;1.83;;;;;;;9.64;63.18;98529.03;5046113;28;20426;-63
2023/01/09 11:29:36;;;;;;;4.43;1.92;;;;;;;9.95;63.27;98506.03;5048872;28;20045;-63
2023/01/09 11:32:21;;;;;;;2.88;1.50;;;;;;;9.92;62.68;98498.41;5053224;28;20064;-63
2023/01/09 11:38:16;;;;;;;2.95;1.60;;;;;;;10.25;61.50;98513.94;5051921;28;20064;-62
2023/01/09 11:41:20;;;;;;;3.20;1.60;;;;;;;10.23;61.01;98510.72;5053100;28;20064;-63
2023/01/09 11:44:06;;;;;;;3.90;1.55;;;;;;;10.20;61.26;98519.75;5038395;28;20053;-63
2023/01/09 11:46:59;;;;;;;4.10;1.52;;;;;;;10.07;61.76;98519.84;5072907;28;20090;-63
2023/01/09 11:52:25;;;;;;;4.63;1.70;;;;;;;9.97;62.61;98531.50;5068422;28;20043;-63
2023/01/09 11:55:11;;;;;;;5.10;1.65;;;;;;;10.04;62.48;98514.22;5069577;28;20048;-62
2023/01/09 11:57:43;;;;;;;2.78;1.67;;;;;;;9.92;62.88;98526.22;5072821;28;20052;-62
2023/01/09 12:00:24;;;;;;;4.78;1.80;;;;;;;9.97;63.52;98523.16;5071027;28;20064;-62
2023/01/09 12:03:12;;;;;;;3.13;1.48;;;;;;;9.89;63.49;98535.25;5052816;28;20053;-62
2023/01/09 12:05:54;;;;;;;3.95;1.77;;;;;;;10.07;63.17;98541.28;5050618;28;20481;-62
2023/01/09 12:08:41;;;;;;;5.25;2.13;;;;;;;10.07;63.71;98525.41;5044187;28;20057;-62
2023/01/09 12:11:27;;;;;;;4.03;1.70;;;;;;;10.03;63.46;98532.84;5045737;28;20045;-62
2023/01/09 12:14:40;;;;;;;4.15;2.03;;;;;;;10.33;63.32;98535.19;5041026;28;20053;-63
2023/01/09 12:17:36;;;;;;;4.55;1.80;;;;;;;10.23;66.01;98536.53;5042572;28;20049;-41
2023/01/09 12:20:26;;;;;;;8.75;2.75;;;;;;;10.32;65.75;98534.41;5040191;28;20052;-41
2023/01/09 12:23:21;;;;;;;4.75;1.80;;;;;;;10.34;64.46;98540.41;5044239;28;20052;-62
2023/01/09 12:26:07;;;;;;;5.80;1.83;;;;;;;10.59;62.14;98533.84;5041317;28;20072;-62
2023/01/09 12:29:26;;;;;;;4.55;1.60;;;;;;;10.70;60.92;98532.91;5061843;28;20053;-62
2023/01/09 12:32:38;;;;;;;4.22;1.50;;;;;;;10.71;60.91;98539.31;4967141;28;20063;-62
2023/01/09 12:35:21;;;;;;;4.20;1.70;;;;;;;10.74;61.12;98547.72;4996087;28;20057;-62
2023/01/09 12:38:15;;;;;;;3.13;1.55;;;;;;;10.64;60.52;98548.28;5049060;28;20056;-62
2023/01/09 12:41:31;;;;;;;3.90;1.58;;;;;;;10.43;60.14;98547.78;5050916;28;20045;-62
2023/01/09 12:47:54;;;;;;;6.45;1.50;;;;;;;10.38;59.87;98553.63;5021425;28;20056;-62